Terminal Aerodrome Forecast
Issued by NWS Knoxville/Tri Cities, TN

Current Version | Previous Version | Text Only | Print | Product List | Glossary On
Versions: 1 2 3 4 5 6 7 8 9 10 11 12 13 14 15 16 17 18 19 20 21 22 23 24
000
FTUS44 KMRX 281121
TAFTRI
TAF
KTRI 281121Z 2812/2912 00000KT P6SM BKN035
     FM281330 00000KT P6SM SKC
     FM281500 36003KT P6SM SCT040
     FM290100 00000KT P6SM SKC
     FM290800 00000KT 3SM BR BKN010=

USA.gov is the U.S. government's official web portal to all federal, state and local government web resources and services.